Time;durP1;ratioP1;P1;durP2;ratioP2;P2;SDS_P1;SDS_P2;PMS_P1;PMS_P2;Temp;Humidity;BMP_temperature;BMP_pressure;BME280_temperature;BME280_humidity;BME280_pressure;Samples;Min_cycle;Max_cycle;Signal;HPM_P1;HPM_P2
2023/09/13 00:01:56;;;;;;;7.97;5.37;;;30.10;51.50;;;;;;5071230;27;88950;-56
2023/09/13 00:04:25;;;;;;;8.73;5.87;;;30.10;51.50;;;;;;5069579;27;87683;-55
2023/09/13 00:06:53;;;;;;;8.30;5.93;;;30.10;51.50;;;;;;5072541;27;89772;-56
2023/09/13 00:09:23;;;;;;;11.13;6.83;;;30.10;51.50;;;;;;5074236;27;89158;-55
2023/09/13 00:11:51;;;;;;;10.47;6.43;;;30.10;51.60;;;;;;5071806;27;88999;-56
2023/09/13 00:14:19;;;;;;;10.93;5.87;;;30.10;51.60;;;;;;5081510;27;87626;-55
2023/09/13 00:16:50;;;;;;;6.43;5.23;;;30.00;52.10;;;;;;5081713;27;89686;-56
2023/09/13 00:19:18;;;;;;;8.60;6.20;;;30.00;51.50;;;;;;5081590;27;89079;-55
2023/09/13 00:21:48;;;;;;;6.63;5.07;;;30.10;51.60;;;;;;5075301;27;87699;-55
2023/09/13 00:24:17;;;;;;;6.77;5.43;;;30.00;51.50;;;;;;5070175;27;87471;-56
2023/09/13 00:26:46;;;;;;;7.23;5.33;;;30.00;51.50;;;;;;5074337;27;89588;-55
2023/09/13 00:29:15;;;;;;;10.47;5.17;;;30.00;51.50;;;;;;5080024;27;88917;-55
2023/09/13 00:31:43;;;;;;;11.13;4.80;;;30.00;51.50;;;;;;5074596;27;89882;-55
2023/09/13 00:34:12;;;;;;;8.07;5.50;;;30.00;51.50;;;;;;5079629;27;87530;-56
2023/09/13 00:36:41;;;;;;;7.97;5.17;;;30.10;51.60;;;;;;5071065;27;90792;-56
2023/09/13 00:39:09;;;;;;;10.03;4.87;;;30.00;51.50;;;;;;5080583;27;89602;-55
2023/09/13 00:41:37;;;;;;;8.30;5.03;;;30.00;51.50;;;;;;5079605;27;88855;-57
2023/09/13 00:44:07;;;;;;;5.10;4.30;;;30.00;51.00;;;;;;5081350;27;87658;-55
2023/09/13 00:46:35;;;;;;;8.77;4.30;;;30.00;51.50;;;;;;5081224;27;89651;-56
2023/09/13 00:49:03;;;;;;;7.30;4.80;;;30.10;51.60;;;;;;5071354;27;89048;-56
2023/09/13 00:51:32;;;;;;;6.50;4.40;;;30.00;51.50;;;;;;5077606;27;88980;-56
2023/09/13 00:54:04;;;;;;;6.30;4.70;;;30.00;51.50;;;;;;5078599;27;87883;-57
2023/09/13 00:56:33;;;;;;;4.67;3.90;;;30.00;51.60;;;;;;5076926;27;89592;-56
2023/09/13 00:59:01;;;;;;;6.97;4.50;;;30.00;51.50;;;;;;5070002;27;89131;-55
2023/09/13 01:01:31;;;;;;;8.30;4.17;;;30.00;51.50;;;;;;5069584;27;88878;-56
2023/09/13 01:03:59;;;;;;;9.63;5.43;;;30.00;51.60;;;;;;5071946;27;87528;-56
2023/09/13 01:06:28;;;;;;;6.73;4.43;;;30.00;51.50;;;;;;5071060;27;89674;-56
2023/09/13 01:08:56;;;;;;;5.73;4.03;;;30.00;51.50;;;;;;5071712;27;89044;-55
2023/09/13 01:11:24;;;;;;;6.83;4.50;;;30.00;51.50;;;;;;5080224;27;88752;-55
2023/09/13 01:13:52;;;;;;;5.60;3.70;;;30.00;51.50;;;;;;5081861;27;87666;-56
2023/09/13 01:16:22;;;;;;;7.97;4.70;;;30.00;51.50;;;;;;5081436;27;89558;-55
2023/09/13 01:18:58;;;;;;;4.93;4.10;;;30.00;51.60;;;;;;5080380;27;91275;-55
2023/09/13 01:21:41;;;;;;;6.57;3.93;;;30.00;51.60;;;;;;5081441;27;89832;-54
2023/09/13 01:24:17;;;;;;;5.03;3.57;;;30.00;51.70;;;;;;5080807;27;87326;-54
2023/09/13 01:26:59;;;;;;;6.00;3.80;;;30.00;51.60;;;;;;5077559;27;89645;-55
2023/09/13 01:29:29;;;;;;;6.53;4.20;;;30.00;51.60;;;;;;5077617;27;89316;-53
2023/09/13 01:31:57;;;;;;;6.20;3.90;;;30.00;51.60;;;;;;5079590;27;88753;-54
2023/09/13 01:34:26;;;;;;;5.73;3.83;;;29.90;51.60;;;;;;5076488;27;89681;-54
2023/09/13 01:36:56;;;;;;;8.70;5.13;;;29.90;51.60;;;;;;5078338;27;89620;-54
2023/09/13 01:39:24;;;;;;;5.40;4.03;;;29.90;51.60;;;;;;5075395;27;89139;-54
2023/09/13 01:41:55;;;;;;;5.83;4.07;;;29.90;51.60;;;;;;5067916;27;89222;-54
2023/09/13 01:44:23;;;;;;;6.47;3.97;;;29.90;51.60;;;;;;5077879;27;88651;-54
2023/09/13 01:46:53;;;;;;;6.70;3.97;;;29.90;51.60;;;;;;5077242;27;90244;-55
2023/09/13 01:49:21;;;;;;;6.13;3.63;;;29.90;51.60;;;;;;5076191;27;91288;-55
2023/09/13 01:51:50;;;;;;;4.67;3.77;;;29.90;51.70;;;;;;5077280;27;88793;-55
2023/09/13 01:54:19;;;;;;;5.33;3.87;;;29.90;51.70;;;;;;5078991;27;87517;-55
2023/09/13 01:56:48;;;;;;;4.93;3.60;;;29.80;51.60;;;;;;5078302;27;89628;-54
2023/09/13 01:59:16;;;;;;;6.03;4.07;;;29.80;51.60;;;;;;5079641;27;89052;-54
2023/09/13 02:01:44;;;;;;;5.13;3.90;;;29.80;51.60;;;;;;5074566;27;88879;-54
2023/09/13 02:04:14;;;;;;;3.80;3.10;;;29.80;51.60;;;;;;5080452;27;87536;-54
2023/09/13 02:06:43;;;;;;;6.00;3.83;;;29.80;51.60;;;;;;5080337;27;88504;-54
2023/09/13 02:09:11;;;;;;;5.23;3.67;;;29.80;52.30;;;;;;5079778;27;89779;-54
2023/09/13 02:11:39;;;;;;;4.27;3.40;;;29.80;52.30;;;;;;5078906;27;88295;-54
2023/09/13 02:14:08;;;;;;;7.27;4.20;;;29.80;51.60;;;;;;5080521;27;87606;-54
2023/09/13 02:16:36;;;;;;;5.07;3.73;;;29.80;51.60;;;;;;5080259;27;89670;-54
2023/09/13 02:19:04;;;;;;;10.00;4.53;;;29.80;52.30;;;;;;5075854;27;88901;-53
2023/09/13 02:21:34;;;;;;;7.00;3.50;;;29.80;51.60;;;;;;5079190;27;88905;-54
2023/09/13 02:24:02;;;;;;;3.33;2.83;;;29.80;51.70;;;;;;5080425;27;87628;-54
2023/09/13 02:26:31;;;;;;;6.03;3.73;;;29.80;51.60;;;;;;5079629;27;89844;-54
2023/09/13 02:28:59;;;;;;;4.53;3.40;;;29.80;51.60;;;;;;5078322;27;89296;-54
2023/09/13 02:31:29;;;;;;;6.93;4.23;;;29.80;51.60;;;;;;5077928;27;88816;-54
2023/09/13 02:33:57;;;;;;;5.33;3.37;;;29.80;51.60;;;;;;5079106;27;87910;-54
2023/09/13 02:36:25;;;;;;;5.27;3.90;;;29.80;51.60;;;;;;5077026;27;88660;-54
2023/09/13 02:38:55;;;;;;;6.93;4.30;;;29.80;51.60;;;;;;5079534;27;88998;-54
2023/09/13 02:41:23;;;;;;;5.07;3.37;;;29.80;51.60;;;;;;5079218;27;88833;-54
2023/09/13 02:43:52;;;;;;;4.03;3.07;;;29.80;51.60;;;;;;5076146;27;87589;-54
2023/09/13 02:46:20;;;;;;;6.33;3.53;;;29.80;51.60;;;;;;5077042;27;89859;-54
2023/09/13 02:48:49;;;;;;;3.97;3.07;;;29.80;52.30;;;;;;5073781;27;89146;-54
2023/09/13 02:51:17;;;;;;;5.93;3.87;;;29.80;51.60;;;;;;5076495;27;88796;-54
2023/09/13 02:53:45;;;;;;;4.57;3.30;;;29.80;51.60;;;;;;5074727;27;87650;-53
2023/09/13 02:56:15;;;;;;;4.20;3.13;;;29.80;52.30;;;;;;5076435;27;89715;-53
2023/09/13 02:58:44;;;;;;;5.07;3.53;;;29.80;51.60;;;;;;5075140;27;90261;-54
2023/09/13 03:01:12;;;;;;;5.10;2.90;;;29.80;51.60;;;;;;5075562;27;89803;-54
2023/09/13 03:03:40;;;;;;;3.60;2.90;;;29.80;51.60;;;;;;5076421;27;87610;-55
2023/09/13 03:06:12;;;;;;;7.97;3.20;;;29.80;51.60;;;;;;5066796;27;88521;-54
2023/09/13 03:08:41;;;;;;;4.00;3.27;;;29.80;51.70;;;;;;5078562;27;89411;-55
2023/09/13 03:11:11;;;;;;;6.77;3.37;;;29.80;51.60;;;;;;5070213;27;88861;-54
2023/09/13 03:13:41;;;;;;;5.23;3.10;;;29.70;52.30;;;;;;5073137;27;87505;-54
2023/09/13 03:16:14;;;;;;;4.87;3.23;;;29.70;51.60;;;;;;5080427;27;89589;-54
2023/09/13 03:18:43;;;;;;;5.67;3.17;;;29.70;51.60;;;;;;5079803;27;88051;-54
2023/09/13 03:21:11;;;;;;;4.47;2.83;;;29.70;51.60;;;;;;5066158;27;88985;-54
2023/09/13 03:23:42;;;;;;;6.43;3.40;;;29.70;51.70;;;;;;5080222;27;88001;-54
2023/09/13 03:26:13;;;;;;;3.33;2.60;;;29.70;51.70;;;;;;5068462;27;89828;-53
2023/09/13 03:28:44;;;;;;;4.57;2.80;;;29.70;51.70;;;;;;5071465;27;88036;-54
2023/09/13 03:31:12;;;;;;;5.13;2.80;;;29.70;51.70;;;;;;5063608;27;88735;-54
2023/09/13 03:33:40;;;;;;;3.70;2.83;;;29.70;51.70;;;;;;5080106;27;87613;-55
2023/09/13 03:36:09;;;;;;;5.90;2.43;;;29.70;51.70;;;;;;5079923;27;89296;-54
2023/09/13 03:38:38;;;;;;;4.33;2.73;;;29.70;51.70;;;;;;5080512;27;89061;-54
2023/09/13 03:41:06;;;;;;;4.90;2.60;;;29.70;51.70;;;;;;5079265;27;87870;-54
2023/09/13 03:43:34;;;;;;;4.30;2.90;;;29.70;51.70;;;;;;5072110;27;89323;-54
2023/09/13 03:46:04;;;;;;;4.83;2.40;;;29.70;51.70;;;;;;5058941;27;89777;-54
2023/09/13 03:48:33;;;;;;;2.83;2.10;;;29.70;51.70;;;;;;5058844;27;90485;-54
2023/09/13 03:51:01;;;;;;;4.20;2.83;;;29.60;51.70;;;;;;5067936;27;89479;-54
2023/09/13 03:53:29;;;;;;;3.47;2.33;;;29.60;51.70;;;;;;5061688;27;88063;-54
2023/09/13 03:55:58;;;;;;;2.80;2.23;;;29.60;51.70;;;;;;5059241;27;90410;-54
2023/09/13 03:58:26;;;;;;;3.10;2.23;;;29.60;51.60;;;;;;5063745;27;89205;-53
2023/09/13 04:00:55;;;;;;;3.93;2.03;;;29.60;51.70;;;;;;5079138;27;88834;-54
2023/09/13 04:03:24;;;;;;;2.77;2.20;;;29.60;51.70;;;;;;5066220;27;87991;-54
2023/09/13 04:05:52;;;;;;;4.40;2.27;;;29.60;52.40;;;;;;5059078;27;89694;-54
2023/09/13 04:08:20;;;;;;;4.37;2.33;;;29.60;51.70;;;;;;5059572;27;88714;-54
2023/09/13 04:10:49;;;;;;;3.27;2.37;;;29.60;51.60;;;;;;5089850;27;88043;-54
2023/09/13 04:13:17;;;;;;;2.47;1.67;;;29.60;51.60;;;;;;5062651;27;88219;-54
2023/09/13 04:15:46;;;;;;;5.03;1.73;;;29.60;51.60;;;;;;5068339;27;89349;-54
2023/09/13 04:18:14;;;;;;;2.53;1.60;;;29.60;51.60;;;;;;5068628;27;89097;-53
2023/09/13 04:20:45;;;;;;;3.27;1.87;;;29.60;51.60;;;;;;5082297;27;87692;-54
2023/09/13 04:23:13;;;;;;;4.67;1.90;;;29.60;51.70;;;;;;5061885;27;87460;-53
2023/09/13 04:25:41;;;;;;;2.73;2.03;;;29.60;51.60;;;;;;5061970;27;88404;-54
2023/09/13 04:28:09;;;;;;;2.83;2.07;;;29.60;51.60;;;;;;5061695;27;89211;-54
2023/09/13 04:30:38;;;;;;;5.27;1.77;;;29.60;51.60;;;;;;5080450;27;88894;-54
2023/09/13 04:33:07;;;;;;;3.00;1.97;;;29.60;51.80;;;;;;5081047;27;87537;-54
2023/09/13 04:35:35;;;;;;;7.87;2.00;;;29.60;51.60;;;;;;5075804;27;89728;-54
2023/09/13 04:38:05;;;;;;;1.90;1.33;;;29.60;51.60;;;;;;5061416;27;90086;-54
2023/09/13 04:40:33;;;;;;;4.83;1.60;;;29.60;51.60;;;;;;5061117;27;89765;-54
2023/09/13 04:43:23;;;;;;;3.43;1.50;;;29.60;51.60;;;;;;5071819;27;87588;-54
2023/09/13 04:45:52;;;;;;;1.90;1.70;;;29.60;51.60;;;;;;5082128;27;89678;-54
2023/09/13 04:48:21;;;;;;;1.87;1.40;;;29.60;51.60;;;;;;5082134;27;89180;-54
2023/09/13 04:50:49;;;;;;;2.27;1.60;;;29.60;51.60;;;;;;5082499;27;88774;-55
2023/09/13 04:53:18;;;;;;;1.97;1.57;;;29.60;51.60;;;;;;5080082;27;87697;-54
2023/09/13 04:55:46;;;;;;;3.13;1.67;;;29.60;51.60;;;;;;5072684;27;89883;-54
2023/09/13 04:58:14;;;;;;;3.53;1.70;;;29.60;51.60;;;;;;5065789;27;88984;-54
2023/09/13 05:00:42;;;;;;;2.67;1.70;;;29.60;51.60;;;;;;5081187;27;88673;-54
2023/09/13 05:03:11;;;;;;;3.10;1.40;;;29.60;51.60;;;;;;5069325;27;88146;-55
2023/09/13 05:05:40;;;;;;;1.80;1.40;;;29.50;51.60;;;;;;5062852;27;89828;-54
2023/09/13 05:08:09;;;;;;;1.67;1.07;;;29.40;52.30;;;;;;5080565;27;89186;-54
2023/09/13 05:10:39;;;;;;;2.53;1.00;;;29.40;51.60;;;;;;5081422;27;88839;-54
2023/09/13 05:13:08;;;;;;;2.30;0.63;;;29.40;52.30;;;;;;5072832;27;87626;-54
2023/09/13 05:15:43;;;;;;;1.80;1.10;;;29.40;51.70;;;;;;5060402;27;89630;-54
2023/09/13 05:18:11;;;;;;;1.77;0.70;;;29.30;51.60;;;;;;5061377;27;89087;-54
2023/09/13 05:20:39;;;;;;;1.30;0.73;;;29.30;51.60;;;;;;5060888;27;88898;-54
2023/09/13 05:23:07;;;;;;;1.57;0.87;;;29.30;51.60;;;;;;5074212;27;87381;-54
2023/09/13 05:25:35;;;;;;;2.10;1.17;;;29.30;51.60;;;;;;5081957;27;89656;-54
2023/09/13 05:28:05;;;;;;;2.03;0.83;;;29.30;51.50;;;;;;5066654;27;90097;-54
2023/09/13 05:30:34;;;;;;;4.60;0.67;;;29.30;51.60;;;;;;5078351;27;89829;-58
2023/09/13 05:33:03;;;;;;;3.13;0.77;;;29.20;51.40;;;;;;5061462;27;87473;-55
2023/09/13 05:35:32;;;;;;;1.50;0.57;;;29.20;51.40;;;;;;5064994;27;89192;-53
2023/09/13 05:38:00;;;;;;;5.37;1.10;;;29.10;51.30;;;;;;5081249;27;89413;-54
2023/09/13 05:40:29;;;;;;;2.67;0.60;;;29.10;51.30;;;;;;5080476;27;87666;-54
2023/09/13 05:42:57;;;;;;;4.80;0.80;;;29.10;51.30;;;;;;5077516;27;87755;-55
2023/09/13 05:45:28;;;;;;;2.27;0.57;;;28.90;50.60;;;;;;5060405;27;89739;-53
2023/09/13 05:47:58;;;;;;;1.67;0.67;;;28.90;51.20;;;;;;5060975;27;89084;-54
2023/09/13 05:50:26;;;;;;;4.30;0.60;;;28.80;51.00;;;;;;5061293;27;87639;-55
2023/09/13 05:52:55;;;;;;;1.50;0.83;;;28.80;50.90;;;;;;5071357;27;88411;-54
2023/09/13 05:55:23;;;;;;;0.63;0.33;;;28.70;50.80;;;;;;5074697;27;89666;-55
2023/09/13 05:57:51;;;;;;;0.40;0.37;;;28.60;50.80;;;;;;5079168;27;87616;-53
2023/09/13 06:00:20;;;;;;;0.60;0.40;;;28.50;50.60;;;;;;5080542;27;88831;-54
2023/09/13 06:02:49;;;;;;;1.20;0.57;;;28.40;50.50;;;;;;5074195;27;89063;-54
2023/09/13 06:05:18;;;;;;;2.00;0.43;;;28.40;50.50;;;;;;5078370;27;89831;-54
2023/09/13 06:07:47;;;;;;;0.53;0.20;;;28.40;50.40;;;;;;5077193;27;89250;-54
2023/09/13 06:10:15;;;;;;;1.10;0.30;;;;;;;;;;5078244;27;88762;-54
2023/09/13 06:12:43;;;;;;;1.63;0.40;;;28.30;49.60;;;;;;5076274;27;87326;-53
2023/09/13 06:15:12;;;;;;;0.30;0.30;;;28.30;50.10;;;;;;5080150;27;89673;-54
2023/09/13 06:17:40;;;;;;;0.53;0.30;;;28.20;50.00;;;;;;5079137;27;90103;-54
2023/09/13 06:20:10;;;;;;;1.83;0.70;;;28.10;49.90;;;;;;5079529;27;88490;-54
2023/09/13 06:22:38;;;;;;;1.37;0.50;;;28.10;49.80;;;;;;5079600;27;87676;-54
2023/09/13 06:25:08;;;;;;;0.40;0.40;;;28.10;49.70;;;;;;5078687;27;89797;-54
2023/09/13 06:27:38;;;;;;;5.97;0.70;;;28.10;49.70;;;;;;5073505;27;89026;-55
2023/09/13 06:30:08;;;;;;;2.10;0.20;;;28.10;49.60;;;;;;5079205;27;88819;-55
2023/09/13 06:32:36;;;;;;;0.97;0.50;;;28.00;49.50;;;;;;5077181;27;87631;-54
2023/09/13 06:35:12;;;;;;;0.83;0.50;;;28.00;50.10;;;;;;5076042;27;89379;-54
2023/09/13 06:37:43;;;;;;;0.50;0.50;;;28.00;49.40;;;;;;5075835;27;89148;-54
2023/09/13 06:40:13;;;;;;;1.40;0.23;;;27.90;49.30;;;;;;5080004;27;87522;-54
2023/09/13 06:42:42;;;;;;;1.17;0.57;;;27.90;49.90;;;;;;5080365;27;88043;-55
2023/09/13 06:45:14;;;;;;;0.57;0.37;;;27.90;49.30;;;;;;5081376;27;89061;-54
2023/09/13 06:47:54;;;;;;;0.63;0.30;;;27.90;49.20;;;;;;5081598;27;89164;-54
2023/09/13 06:50:25;;;;;;;0.30;0.30;;;27.90;49.20;;;;;;5082728;27;88928;-53
2023/09/13 06:53:13;;;;;;;3.40;0.50;;;27.90;49.10;;;;;;5070411;27;88523;-54
2023/09/13 06:56:03;;;;;;;2.33;0.40;;;27.90;49.00;;;;;;5080207;27;91174;-54
2023/09/13 06:58:36;;;;;;;0.43;0.33;;;27.90;49.60;;;;;;5078802;27;89107;-54
2023/09/13 07:01:06;;;;;;;0.70;0.37;;;27.90;48.90;;;;;;5080244;27;88851;-54
2023/09/13 07:03:37;;;;;;;2.10;0.30;;;27.90;48.80;;;;;;5082884;27;87383;-53
2023/09/13 07:06:09;;;;;;;3.23;0.70;;;27.80;48.70;;;;;;5080733;27;89653;-53
2023/09/13 07:08:37;;;;;;;0.20;0.20;;;27.80;48.70;;;;;;5077766;27;90157;-54
2023/09/13 07:11:05;;;;;;;0.40;0.20;;;27.80;48.70;;;;;;5080089;27;88590;-54
2023/09/13 07:13:34;;;;;;;0.70;0.50;;;27.80;49.30;;;;;;5082357;27;87618;-53
2023/09/13 07:16:02;;;;;;;0.97;0.40;;;27.80;48.60;;;;;;5083029;27;89996;-53
2023/09/13 07:18:30;;;;;;;2.13;1.13;;;27.80;48.50;;;;;;5081395;27;89022;-53
2023/09/13 07:20:58;;;;;;;2.47;0.50;;;27.80;48.50;;;;;;5082040;27;89264;-54
2023/09/13 07:23:28;;;;;;;0.87;0.33;;;27.70;48.40;;;;;;5082215;27;87558;-54
2023/09/13 07:25:57;;;;;;;1.67;0.20;;;27.70;48.40;;;;;;5080142;27;89863;-54
2023/09/13 07:28:26;;;;;;;1.27;0.50;;;27.70;48.40;;;;;;5077053;27;89184;-53
2023/09/13 07:30:54;;;;;;;0.80;0.40;;;27.70;48.30;;;;;;5081805;27;88739;-52
2023/09/13 07:33:22;;;;;;;0.37;0.30;;;27.70;48.30;;;;;;5076410;27;89113;-53
2023/09/13 07:35:51;;;;;;;0.30;0.30;;;27.70;48.20;;;;;;5079057;27;90566;-54
2023/09/13 07:38:19;;;;;;;0.80;0.40;;;27.70;48.20;;;;;;5081001;27;89356;-53
2023/09/13 07:40:48;;;;;;;0.77;0.40;;;27.70;48.20;;;;;;5082223;27;88600;-53
2023/09/13 07:43:17;;;;;;;0.30;0.30;;;27.70;48.10;;;;;;5080726;27;87545;-53
2023/09/13 07:45:46;;;;;;;0.37;0.37;;;27.70;48.00;;;;;;5079944;27;88534;-55
2023/09/13 07:48:15;;;;;;;0.20;0.20;;;27.70;48.60;;;;;;5081162;27;89112;-54
2023/09/13 07:50:44;;;;;;;0.50;0.20;;;27.60;47.90;;;;;;5069091;27;88801;-53
2023/09/13 07:53:13;;;;;;;0.23;0.20;;;27.60;47.80;;;;;;5082412;27;87509;-55
2023/09/13 07:55:41;;;;;;;3.93;0.30;;;27.60;47.80;;;;;;5082458;27;89681;-54
2023/09/13 07:58:11;;;;;;;1.13;0.33;;;27.60;47.80;;;;;;5078126;27;90202;-54
2023/09/13 08:00:39;;;;;;;1.50;0.40;;;27.50;47.80;;;;;;5080041;27;90273;-53
2023/09/13 08:03:07;;;;;;;0.40;0.30;;;27.50;47.70;;;;;;5079370;27;87328;-53
2023/09/13 08:05:36;;;;;;;1.23;0.47;;;27.50;47.70;;;;;;5081973;27;89612;-53
2023/09/13 08:08:04;;;;;;;0.40;0.30;;;27.50;47.60;;;;;;5078605;27;88876;-54
2023/09/13 08:10:32;;;;;;;0.67;0.40;;;27.60;47.70;;;;;;5081732;27;88923;-54
2023/09/13 08:13:01;;;;;;;0.30;0.20;;;27.60;47.60;;;;;;5081666;27;87588;-54
2023/09/13 08:15:31;;;;;;;0.20;0.20;;;27.60;47.60;;;;;;5078521;27;89625;-54
2023/09/13 08:18:15;;;;;;;0.40;0.37;;;27.60;47.50;;;;;;5079650;27;89122;-53
2023/09/13 08:20:43;;;;;;;1.37;0.20;;;27.60;47.50;;;;;;5081198;27;88920;-54
2023/09/13 08:23:11;;;;;;;0.73;0.30;;;27.60;47.50;;;;;;5081464;27;88117;-53
2023/09/13 08:25:40;;;;;;;3.00;0.50;;;27.60;47.50;;;;;;5081494;27;89713;-54
2023/09/13 08:28:08;;;;;;;0.20;0.20;;;27.70;47.60;;;;;;5081734;27;89152;-52
2023/09/13 08:30:38;;;;;;;0.40;0.40;;;27.70;47.50;;;;;;5080999;27;88901;-53
2023/09/13 08:33:06;;;;;;;0.87;0.30;;;27.70;47.50;;;;;;5079274;27;87675;-53
2023/09/13 08:35:35;;;;;;;0.70;0.30;;;27.70;47.50;;;;;;5079743;27;89628;-53
2023/09/13 08:38:04;;;;;;;0.33;0.30;;;27.70;47.50;;;;;;5081483;27;89195;-52
2023/09/13 08:40:32;;;;;;;0.43;0.20;;;27.70;47.50;;;;;;5082104;27;88632;-54
2023/09/13 08:43:01;;;;;;;2.33;0.50;;;27.70;48.00;;;;;;5081832;27;87746;-54
2023/09/13 08:45:29;;;;;;;0.30;0.30;;;27.70;47.40;;;;;;5079386;27;89728;-54
2023/09/13 08:48:01;;;;;;;0.33;0.33;;;27.70;47.40;;;;;;5080212;27;90141;-52
2023/09/13 08:50:30;;;;;;;0.50;0.50;;;27.70;47.40;;;;;;5079019;27;89940;-53
2023/09/13 08:52:59;;;;;;;0.53;0.27;;;27.70;47.40;;;;;;5082055;27;87669;-53
2023/09/13 08:55:27;;;;;;;1.10;0.40;;;27.70;47.40;;;;;;5077569;27;89623;-53
2023/09/13 08:57:56;;;;;;;2.37;0.30;;;27.70;47.40;;;;;;5079526;27;89584;-50
2023/09/13 09:00:25;;;;;;;2.53;0.30;;;27.70;47.40;;;;;;5074836;27;88931;-50
2023/09/13 09:02:53;;;;;;;1.47;0.50;;;27.70;47.40;;;;;;5079058;27;87573;-50
2023/09/13 09:05:24;;;;;;;0.50;0.30;;;27.70;47.30;;;;;;5081479;27;88366;-51
2023/09/13 09:07:52;;;;;;;0.73;0.40;;;27.70;47.30;;;;;;5080814;27;89135;-50
2023/09/13 09:10:20;;;;;;;0.40;0.40;;;27.70;47.30;;;;;;5079097;27;87593;-50
2023/09/13 09:12:49;;;;;;;0.20;0.20;;;27.70;47.30;;;;;;5079249;27;88016;-50
2023/09/13 09:15:18;;;;;;;1.30;0.40;;;27.70;47.30;;;;;;5080449;27;89682;-51
2023/09/13 09:17:48;;;;;;;0.20;0.20;;;27.70;47.20;;;;;;5078993;27;89032;-51
2023/09/13 09:20:17;;;;;;;0.47;0.20;;;27.60;47.10;;;;;;5080237;27;89073;-51
2023/09/13 09:22:46;;;;;;;0.30;0.30;;;27.60;47.10;;;;;;5078591;27;87537;-51
2023/09/13 09:25:15;;;;;;;0.30;0.30;;;27.70;47.10;;;;;;5080523;27;89826;-51
2023/09/13 09:27:44;;;;;;;0.20;0.20;;;27.70;47.10;;;;;;5080758;27;89057;-51
2023/09/13 09:30:15;;;;;;;1.13;0.43;;;27.70;47.00;;;;;;5079555;27;88810;-51
2023/09/13 09:32:44;;;;;;;0.37;0.30;;;27.60;47.00;;;;;;5081180;27;87565;-51
2023/09/13 09:35:14;;;;;;;3.10;0.40;;;27.60;47.70;;;;;;5080383;27;88521;-51
2023/09/13 09:37:44;;;;;;;0.57;0.20;;;27.60;47.00;;;;;;5080147;27;89996;-51
2023/09/13 09:40:14;;;;;;;1.30;0.47;;;27.60;47.00;;;;;;5080324;27;89736;-51
2023/09/13 09:42:43;;;;;;;2.33;0.50;;;27.60;47.00;;;;;;5074595;27;87850;-51
2023/09/13 09:45:12;;;;;;;0.90;0.37;;;27.60;46.90;;;;;;5080506;27;89507;-51
2023/09/13 09:47:41;;;;;;;0.77;0.33;;;27.60;46.90;;;;;;5076563;27;89271;-51
2023/09/13 09:50:13;;;;;;;0.70;0.40;;;27.60;46.90;;;;;;5077481;27;88878;-51
2023/09/13 09:52:41;;;;;;;0.90;0.40;;;27.60;46.90;;;;;;5078484;27;87585;-51
2023/09/13 09:55:15;;;;;;;1.50;0.50;;;27.50;46.90;;;;;;5079106;27;89616;-50
2023/09/13 09:57:46;;;;;;;0.60;0.30;;;27.50;47.60;;;;;;5079099;27;89347;-51
2023/09/13 10:00:16;;;;;;;0.50;0.50;;;27.50;46.90;;;;;;5073564;27;88951;-52
2023/09/13 10:02:44;;;;;;;0.40;0.30;;;27.50;47.00;;;;;;5078119;27;87759;-51
2023/09/13 10:05:16;;;;;;;0.20;0.20;;;27.40;46.90;;;;;;5075867;27;89770;-52
2023/09/13 10:07:50;;;;;;;0.87;0.40;;;27.40;47.00;;;;;;5072364;27;88532;-54
2023/09/13 10:10:33;;;;;;;1.13;0.50;;;27.40;46.90;;;;;;5078079;27;88594;-53
2023/09/13 10:13:03;;;;;;;1.80;0.50;;;27.30;47.50;;;;;;5075879;27;87501;-53
2023/09/13 10:15:31;;;;;;;1.30;0.60;;;27.40;46.90;;;;;;5080345;27;89554;-53
2023/09/13 10:18:00;;;;;;;1.03;0.53;;;27.50;46.90;;;;;;5080513;27;91859;-53
2023/09/13 10:20:30;;;;;;;0.83;0.60;;;27.50;46.80;;;;;;5078442;27;88758;-53
2023/09/13 10:22:58;;;;;;;0.70;0.63;;;27.50;46.70;;;;;;5082164;27;87637;-53
2023/09/13 10:25:27;;;;;;;0.60;0.60;;;27.50;46.70;;;;;;5081022;27;89801;-54
2023/09/13 10:27:57;;;;;;;1.33;0.73;;;27.50;46.60;;;;;;5083477;27;90006;-54
2023/09/13 10:30:27;;;;;;;0.57;0.50;;;27.50;46.60;;;;;;5082371;27;89635;-53
2023/09/13 10:32:58;;;;;;;0.47;0.47;;;27.50;46.50;;;;;;5083432;27;87524;-52
2023/09/13 10:35:27;;;;;;;2.57;0.73;;;27.50;46.40;;;;;;5079913;27;89566;-53
2023/09/13 10:37:59;;;;;;;0.53;0.37;;;27.40;46.40;;;;;;5080289;27;88953;-53
2023/09/13 10:40:29;;;;;;;0.60;0.43;;;27.30;46.40;;;;;;5080461;27;88874;-53
2023/09/13 10:42:59;;;;;;;2.00;0.50;;;27.20;46.40;;;;;;5081686;27;87200;-54
2023/09/13 10:45:28;;;;;;;5.37;0.70;;;27.20;46.40;;;;;;5079299;27;89662;-53
2023/09/13 10:47:57;;;;;;;1.13;0.50;;;27.20;46.40;;;;;;5081568;27;89011;-54
2023/09/13 10:50:25;;;;;;;3.50;0.63;;;27.20;46.30;;;;;;5080487;27;87760;-53
2023/09/13 10:52:54;;;;;;;0.93;0.30;;;27.20;46.20;;;;;;5077403;27;88007;-55
2023/09/13 10:55:22;;;;;;;0.53;0.30;;;27.10;46.20;;;;;;5082373;27;89798;-55
2023/09/13 10:57:51;;;;;;;0.50;0.50;;;27.10;46.20;;;;;;5082874;27;88869;-60
2023/09/13 11:00:21;;;;;;;0.93;0.33;;;27.10;46.20;;;;;;5081858;27;88852;-56
2023/09/13 11:02:49;;;;;;;0.80;0.40;;;27.10;46.20;;;;;;5080598;27;87422;-55
2023/09/13 11:05:19;;;;;;;0.67;0.47;;;27.10;46.20;;;;;;5076654;27;89721;-54
2023/09/13 11:07:49;;;;;;;0.20;0.20;;;27.00;46.20;;;;;;5079809;27;89054;-53
2023/09/13 11:10:18;;;;;;;3.87;0.67;;;27.00;46.20;;;;;;5080063;27;88864;-54
2023/09/13 11:12:50;;;;;;;1.30;0.30;;;26.90;46.30;;;;;;5080053;27;88688;-55
2023/09/13 11:15:23;;;;;;;1.40;0.53;;;26.80;46.50;;;;;;5078093;27;89356;-54
2023/09/13 11:17:53;;;;;;;0.17;0.17;;;26.70;46.70;;;;;;5078657;27;91381;-54
2023/09/13 11:20:22;;;;;;;0.97;0.50;;;26.60;46.80;;;;;;5083411;27;90018;-54
2023/09/13 11:23:08;;;;;;;0.23;0.20;;;26.50;47.00;;;;;;5082931;27;87562;-54
2023/09/13 11:25:54;;;;;;;0.33;0.30;;;26.40;47.20;;;;;;5066084;27;89878;-55
2023/09/13 11:28:33;;;;;;;2.10;0.53;;;26.30;47.20;;;;;;5068551;27;89118;-55
2023/09/13 11:31:03;;;;;;;0.27;0.27;;;26.20;47.20;;;;;;5065728;27;88900;-55
2023/09/13 11:33:32;;;;;;;1.53;0.37;;;26.20;47.20;;;;;;5080155;27;88744;-56
2023/09/13 11:36:00;;;;;;;2.83;0.63;;;26.20;47.10;;;;;;5076581;27;89684;-56
2023/09/13 11:38:28;;;;;;;0.97;0.30;;;26.20;47.00;;;;;;5077710;27;89075;-55
2023/09/13 11:40:57;;;;;;;0.50;0.50;;;26.20;47.00;;;;;;5062168;27;88922;-55
2023/09/13 11:43:26;;;;;;;0.70;0.50;;;26.10;46.90;;;;;;5062063;27;88760;-56
2023/09/13 11:46:04;;;;;;;0.47;0.27;;;26.00;46.80;;;;;;5061679;27;89907;-55
2023/09/13 11:48:39;;;;;;;0.30;0.30;;;26.00;46.70;;;;;;5062571;27;88706;-55
2023/09/13 11:51:26;;;;;;;1.10;0.40;;;26.00;46.70;;;;;;5062302;27;88877;-55
2023/09/13 11:54:16;;;;;;;1.13;0.60;;;26.00;46.60;;;;;;5063358;27;87525;-55
2023/09/13 11:56:46;;;;;;;0.60;0.30;;;26.00;46.50;;;;;;5062413;27;89750;-55
2023/09/13 11:59:17;;;;;;;0.77;0.50;;;26.00;46.50;;;;;;5061661;27;88777;-55
2023/09/13 12:01:49;;;;;;;1.40;0.60;;;26.10;46.50;;;;;;5062336;27;88950;-56
2023/09/13 12:04:24;;;;;;;2.00;0.70;;;26.10;46.40;;;;;;5061799;27;87572;-55
2023/09/13 12:06:56;;;;;;;1.33;0.50;;;26.10;46.30;;;;;;5060512;27;89228;-55
2023/09/13 12:09:29;;;;;;;0.97;0.53;;;26.20;46.40;;;;;;5060981;27;89019;-56
2023/09/13 12:12:02;;;;;;;0.70;0.50;;;26.20;46.40;;;;;;5062086;27;89939;-55
2023/09/13 12:14:38;;;;;;;0.77;0.70;;;26.20;46.30;;;;;;5061540;27;87454;-56
2023/09/13 12:17:38;;;;;;;0.80;0.63;;;26.20;46.30;;;;;;5061649;27;91485;-55
2023/09/13 12:20:10;;;;;;;3.70;0.80;;;26.20;46.40;;;;;;5061898;27;87843;-56
2023/09/13 12:22:39;;;;;;;1.00;0.40;;;26.20;46.40;;;;;;5061871;27;88826;-55
2023/09/13 12:25:10;;;;;;;1.37;0.60;;;26.20;46.40;;;;;;5061483;27;87452;-55
2023/09/13 12:27:38;;;;;;;4.67;0.63;;;26.20;46.30;;;;;;5062160;27;89649;-55
2023/09/13 12:30:07;;;;;;;0.70;0.57;;;26.20;46.30;;;;;;5062286;27;88914;-55
2023/09/13 12:32:36;;;;;;;2.27;0.60;;;26.30;46.30;;;;;;5061308;27;88914;-55
2023/09/13 12:35:07;;;;;;;0.90;0.57;;;26.30;46.20;;;;;;5060886;27;88063;-55
2023/09/13 12:37:35;;;;;;;1.43;0.80;;;26.30;46.10;;;;;;5060008;27;89583;-56
2023/09/13 12:40:13;;;;;;;0.93;0.53;;;26.30;46.00;;;;;;5061903;27;89206;-57
2023/09/13 12:42:42;;;;;;;2.20;0.90;;;26.30;46.00;;;;;;5060899;27;88969;-55
2023/09/13 12:45:12;;;;;;;1.20;0.67;;;26.40;46.00;;;;;;5061369;27;87486;-56
2023/09/13 12:47:41;;;;;;;7.73;1.20;;;26.40;45.90;;;;;;5061560;27;90346;-56
2023/09/13 12:50:11;;;;;;;2.47;1.00;;;26.40;45.90;;;;;;5061142;27;88052;-55
2023/09/13 12:52:59;;;;;;;1.23;0.57;;;26.40;45.80;;;;;;5061179;27;89476;-56
2023/09/13 12:55:28;;;;;;;2.40;1.00;;;26.50;45.80;;;;;;5061238;27;87616;-55
2023/09/13 12:58:04;;;;;;;2.20;0.83;;;26.50;45.80;;;;;;5060989;27;89575;-56
2023/09/13 13:00:33;;;;;;;1.03;0.60;;;26.50;45.70;;;;;;5060964;27;90125;-56
2023/09/13 13:03:01;;;;;;;1.03;0.77;;;26.50;45.70;;;;;;5061437;27;89793;-57